createdAt,value
2023-02-11T00:03:43.928Z,23.80
2023-02-11T00:08:46.764Z,26.10
2023-02-11T00:13:49.529Z,24.50
2023-02-11T00:18:54.199Z,24.23
2023-02-11T00:23:59.984Z,24.70
2023-02-11T00:29:03.945Z,24.63
2023-02-11T00:34:07.168Z,22.60
2023-02-11T00:39:09.848Z,20.90
2023-02-11T00:44:12.108Z,25.30
2023-02-11T00:49:15.795Z,26.10
2023-02-11T00:54:18.101Z,25.50
2023-02-11T00:59:20.728Z,26.13
2023-02-11T01:04:23.201Z,25.03
2023-02-11T01:09:27.603Z,26.00
2023-02-11T01:14:29.956Z,28.63
2023-02-11T01:19:32.337Z,29.07
2023-02-11T01:24:34.737Z,31.67
2023-02-11T01:29:39.313Z,26.40
2023-02-11T01:34:41.678Z,27.73
2023-02-11T01:39:44.102Z,28.27
2023-02-11T01:44:52.665Z,28.27
2023-02-11T01:49:59.634Z,29.50
2023-02-11T01:55:28.684Z,26.37
2023-02-11T02:00:37.747Z,28.63
2023-02-11T02:05:56.063Z,27.50
2023-02-11T02:11:01.071Z,28.93
2023-02-11T02:16:09.814Z,29.30
2023-02-11T02:21:34.546Z,28.63
2023-02-11T02:26:58.899Z,28.53
2023-02-11T02:32:38.373Z,26.57
2023-02-11T02:37:42.075Z,27.70
2023-02-11T02:42:45.181Z,22.70
2023-02-11T02:47:47.494Z,23.07
2023-02-11T02:53:12.707Z,21.30
2023-02-11T02:58:50.157Z,21.10
2023-02-11T03:04:10.033Z,20.00
2023-02-11T03:09:26.548Z,21.30
2023-02-11T03:14:30.619Z,19.60
2023-02-11T03:19:39.363Z,19.97
2023-02-11T03:24:42.709Z,21.03
2023-02-11T03:30:01.095Z,20.20
2023-02-11T03:35:24.659Z,20.67
2023-02-11T03:40:32.942Z,18.77
2023-02-11T03:45:38.084Z,19.77
2023-02-11T03:50:42.063Z,20.07
2023-02-11T03:55:48.380Z,20.30
2023-02-11T04:00:50.902Z,21.33
2023-02-11T04:05:53.215Z,23.00
2023-02-11T04:10:55.467Z,23.93
2023-02-11T04:15:57.787Z,23.30
2023-02-11T04:20:59.965Z,23.67
2023-02-11T04:26:02.316Z,22.87
2023-02-11T04:31:04.947Z,23.50
2023-02-11T04:36:07.855Z,20.10
2023-02-11T04:41:10.085Z,21.53
2023-02-11T04:46:12.446Z,21.53
2023-02-11T04:51:15.367Z,25.60
2023-02-11T04:56:17.689Z,27.20
2023-02-11T05:01:20.035Z,23.57
2023-02-11T05:06:22.357Z,30.23
2023-02-11T05:11:26.275Z,32.30
2023-02-11T05:16:28.680Z,26.10
2023-02-11T05:21:31.129Z,29.33
2023-02-11T05:26:33.586Z,24.60
2023-02-11T05:31:36.003Z,26.10
2023-02-11T05:36:38.379Z,22.83
2023-02-11T05:41:40.771Z,24.40
2023-02-11T05:46:43.170Z,28.80
2023-02-11T05:51:45.530Z,27.53
2023-02-11T05:56:47.761Z,27.40
2023-02-11T06:01:50.037Z,27.80
2023-02-11T06:06:52.223Z,26.30
2023-02-11T06:11:54.648Z,26.30
2023-02-11T06:16:57.007Z,26.87
2023-02-11T06:22:00.456Z,28.93
2023-02-11T06:27:04.903Z,26.50
2023-02-11T06:32:10.107Z,26.83
2023-02-11T06:37:18.431Z,28.00
2023-02-11T06:42:20.763Z,26.90
2023-02-11T06:47:23.074Z,25.10
2023-02-11T06:52:25.346Z,24.77
2023-02-11T06:57:27.586Z,23.77
2023-02-11T07:02:29.864Z,24.03
2023-02-11T07:07:34.364Z,25.10
2023-02-11T07:12:36.742Z,27.40
2023-02-11T07:17:39.054Z,24.70
2023-02-11T07:22:41.297Z,28.40
2023-02-11T07:27:43.631Z,31.60
2023-02-11T07:32:45.881Z,27.70
2023-02-11T07:37:48.158Z,30.87
2023-02-11T07:42:50.434Z,29.03
2023-02-11T07:47:52.690Z,29.47
2023-02-11T07:52:54.947Z,30.53
2023-02-11T07:57:57.737Z,31.93
2023-02-11T08:03:00.225Z,32.67
2023-02-11T08:08:02.388Z,35.67
2023-02-11T08:13:04.639Z,34.97
2023-02-11T08:18:07.532Z,35.27
2023-02-11T08:23:09.800Z,39.40
2023-02-11T08:28:12.134Z,34.17
2023-02-11T08:33:14.381Z,35.83
2023-02-11T08:38:16.681Z,34.07
2023-02-11T08:43:18.807Z,36.17
2023-02-11T08:48:20.999Z,35.67
2023-02-11T08:53:23.593Z,37.80
2023-02-11T08:58:25.918Z,40.20
2023-02-11T09:03:28.350Z,36.40
2023-02-11T09:08:30.602Z,35.87
2023-02-11T09:13:34.058Z,32.90
2023-02-11T09:18:36.333Z,33.10
2023-02-11T09:23:38.671Z,32.03
2023-02-11T09:28:40.991Z,33.73
2023-02-11T09:33:49.178Z,36.90
2023-02-11T09:38:52.843Z,34.53
2023-02-11T09:44:05.400Z,36.30
2023-02-11T09:49:16.456Z,38.30
2023-02-11T09:54:37.084Z,37.17
2023-02-11T09:59:40.907Z,36.23
2023-02-11T10:05:28.378Z,35.00
2023-02-11T10:10:54.605Z,34.90
2023-02-11T10:16:27.820Z,33.87
2023-02-11T10:21:52.935Z,34.37
2023-02-11T10:26:55.366Z,32.30
2023-02-11T10:31:59.580Z,33.67
2023-02-11T10:37:01.987Z,33.10
2023-02-11T10:42:11.252Z,33.67
2023-02-11T10:47:23.039Z,33.47
2023-02-11T10:52:28.353Z,30.70
2023-02-11T10:57:40.079Z,30.50
2023-02-11T11:02:52.566Z,33.00
2023-02-11T11:08:02.769Z,33.73
2023-02-11T11:13:05.231Z,30.97
2023-02-11T11:18:22.475Z,27.00
2023-02-11T11:23:26.246Z,30.03
2023-02-11T11:28:31.983Z,30.33
2023-02-11T11:33:37.199Z,29.67
2023-02-11T11:39:08.787Z,31.20
2023-02-11T11:44:33.964Z,27.60
2023-02-11T11:49:43.438Z,26.63
2023-02-11T11:54:55.907Z,27.57
2023-02-11T11:59:59.327Z,26.53
2023-02-11T12:05:07.814Z,26.27
2023-02-11T12:10:38.200Z,27.57
2023-02-11T12:16:27.340Z,25.53
2023-02-11T12:22:03.706Z,29.10
2023-02-11T12:27:44.142Z,25.50
2023-02-11T12:33:17.235Z,25.10
2023-02-11T12:39:05.456Z,22.80
2023-02-11T12:44:35.617Z,28.47
2023-02-11T12:56:03.529Z,29.13
2023-02-11T13:01:16.064Z,27.20
2023-02-11T13:06:35.402Z,26.90
2023-02-11T13:11:52.533Z,25.60
2023-02-11T13:16:58.542Z,26.63
2023-02-11T13:22:20.614Z,24.13
2023-02-11T13:27:50.549Z,25.23
2023-02-11T13:32:55.834Z,24.93
2023-02-11T13:38:01.578Z,23.07
2023-02-11T13:43:07.808Z,22.80
2023-02-11T13:48:24.604Z,26.20
2023-02-11T13:53:28.233Z,24.53
2023-02-11T13:58:30.328Z,21.83
2023-02-11T14:03:57.507Z,23.60
2023-02-11T14:09:15.602Z,23.20
2023-02-11T14:14:23.830Z,21.73
2023-02-11T14:19:46.120Z,20.20
2023-02-11T14:25:02.485Z,21.50
2023-02-11T14:30:48.804Z,18.70
2023-02-11T14:36:22.946Z,23.17
2023-02-11T14:41:31.441Z,21.87
2023-02-11T14:46:34.616Z,21.30
2023-02-11T14:51:40.919Z,21.10
2023-02-11T14:56:44.791Z,21.00
2023-02-11T15:01:51.823Z,25.83
2023-02-11T15:06:55.345Z,34.73
2023-02-11T15:11:58.736Z,26.27
2023-02-11T15:17:07.910Z,19.80
2023-02-11T15:22:30.382Z,23.30
2023-02-11T15:27:48.276Z,18.27
2023-02-11T15:33:19.728Z,13.47
2023-02-11T15:38:21.908Z,15.43
2023-02-11T15:43:24.168Z,14.30
2023-02-11T15:48:53.595Z,17.00
2023-02-11T15:54:03.377Z,16.37
2023-02-11T15:59:20.420Z,19.30
2023-02-11T16:04:26.768Z,17.27
2023-02-11T16:09:36.086Z,19.60
2023-02-11T16:14:39.459Z,19.93
2023-02-11T16:19:46.777Z,16.93
2023-02-11T16:24:52.456Z,16.27
2023-02-11T16:29:55.036Z,19.30
2023-02-11T16:35:00.972Z,21.67
2023-02-11T16:40:03.166Z,19.30
2023-02-11T16:45:06.234Z,22.73
2023-02-11T16:50:12.362Z,20.67
2023-02-11T16:55:15.275Z,22.70
2023-02-11T17:00:18.290Z,19.80
2023-02-11T17:05:23.331Z,20.23
2023-02-11T17:10:25.936Z,23.50
2023-02-11T17:15:28.135Z,18.40
2023-02-11T17:20:30.373Z,21.13
2023-02-11T17:25:32.794Z,21.70
2023-02-11T17:30:35.703Z,25.33
2023-02-11T17:35:40.672Z,25.37
2023-02-11T17:40:42.991Z,25.63
2023-02-11T17:45:45.123Z,26.17
2023-02-11T17:50:47.363Z,24.20
2023-02-11T17:55:49.845Z,24.20
2023-02-11T18:00:52.368Z,24.17
2023-02-11T18:05:54.553Z,22.80
2023-02-11T18:10:56.875Z,21.67
2023-02-11T18:16:04.182Z,22.10
2023-02-11T18:21:09.634Z,21.43
2023-02-11T18:26:13.961Z,23.23
2023-02-11T18:31:17.215Z,23.07
2023-02-11T18:36:21.217Z,21.83
2023-02-11T18:41:23.519Z,21.17
2023-02-11T18:46:26.093Z,22.53
2023-02-11T18:51:31.676Z,21.67
2023-02-11T18:56:34.055Z,22.40
2023-02-11T19:01:36.591Z,19.90
2023-02-11T19:06:39.361Z,22.00
2023-02-11T19:11:47.374Z,20.50
2023-02-11T19:16:52.987Z,22.50
2023-02-11T19:21:55.898Z,21.80
2023-02-11T19:27:02.609Z,19.33
2023-02-11T19:32:06.434Z,23.97
2023-02-11T19:37:12.738Z,20.50
2023-02-11T19:42:15.209Z,20.17
2023-02-11T19:47:17.906Z,21.57
2023-02-11T19:52:20.170Z,19.40
2023-02-11T19:57:22.318Z,26.17
2023-02-11T20:02:24.996Z,20.80
2023-02-11T20:07:27.322Z,24.00
2023-02-11T20:12:29.653Z,36.23
2023-02-11T20:17:32.139Z,32.80
2023-02-11T20:22:34.572Z,29.30
2023-02-11T20:27:36.871Z,29.10
2023-02-11T20:32:39.039Z,26.10
2023-02-11T20:37:44.033Z,26.70
2023-02-11T20:42:46.381Z,24.40
2023-02-11T20:47:48.833Z,23.13
2023-02-11T20:52:51.138Z,25.37
2023-02-11T20:57:53.510Z,24.97
2023-02-11T21:02:55.855Z,24.40
2023-02-11T21:07:58.098Z,22.13
2023-02-11T21:13:00.517Z,22.90
2023-02-11T21:18:02.756Z,22.33
2023-02-11T21:23:04.893Z,24.00
2023-02-11T21:28:07.287Z,23.17
2023-02-11T21:33:09.674Z,23.60
2023-02-11T21:38:12.396Z,24.10
2023-02-11T21:43:14.570Z,28.70
2023-02-11T21:48:18.079Z,22.77
2023-02-11T21:53:20.362Z,22.27
2023-02-11T21:58:22.821Z,22.30
2023-02-11T22:03:25.257Z,23.50
2023-02-11T22:08:27.433Z,22.60
2023-02-11T22:13:29.628Z,21.70
2023-02-11T22:18:32.112Z,21.67
2023-02-11T22:23:35.305Z,23.80
2023-02-11T22:28:40.645Z,28.37
2023-02-11T22:33:44.153Z,21.93
2023-02-11T22:38:46.993Z,23.07
2023-02-11T22:43:49.801Z,22.47
2023-02-11T22:48:53.062Z,20.23
2023-02-11T22:54:01.457Z,19.13
2023-02-11T22:59:08.017Z,18.97
2023-02-11T23:04:14.791Z,17.83
2023-02-11T23:09:17.171Z,18.70
2023-02-11T23:14:19.420Z,16.30
2023-02-11T23:19:21.642Z,21.83
2023-02-11T23:24:23.811Z,17.13
2023-02-11T23:29:26.088Z,17.30
2023-02-11T23:34:28.433Z,16.57
2023-02-11T23:39:30.641Z,15.80
2023-02-11T23:44:32.989Z,14.30
2023-02-11T23:49:35.423Z,17.17
2023-02-11T23:54:37.760Z,15.47
2023-02-11T23:59:41.373Z,15.20
